DAL220 TNCM-KFLL
Flight info
| Callsign | DAL220 |
|---|---|
| Flight time | N/A |
| Altitude | 32000 |
| Route | PJM B520 STT RTE6 SJU DCT ACONY Y280 SAPPO Y399 ZQA OLAHS3 |
| Aircraft | B738/M-SDE2E3FGHIRWXY/LB1 |
Departure
| Time | 2026-05-03 23:31 |
|---|---|
| Airport | Princess Juliana International Airport (TNCM) |
Arrival
| Time | N/A |
|---|---|
| Airport | Fort Lauderdale Hollywood International Airport (KFLL) |
| Time | Latitude | Longitude | Altitude | Speed | Heading |
|---|---|---|---|---|---|
| 2026-05-03 22:52 | 18.04261 | -63.11189 | 20 ft | 0 kts | 171° |
| 2026-05-03 23:23 | 18.04257 | -63.11188 | 19 ft | 2 kts | 171° |
| 2026-05-03 23:23 | 18.04229 | -63.11184 | 19 ft | 2 kts | 171° |
| 2026-05-03 23:23 | 18.04221 | -63.11182 | 19 ft | 0 kts | 171° |
| 2026-05-03 23:24 | 18.04219 | -63.11183 | 19 ft | 0 kts | 198° |
| 2026-05-03 23:24 | 18.04217 | -63.11186 | 19 ft | 0 kts | 251° |
| 2026-05-03 23:24 | 18.04213 | -63.11219 | 20 ft | 9 kts | 262° |
| 2026-05-03 23:24 | 18.04211 | -63.11275 | 20 ft | 2 kts | 271° |
| 2026-05-03 23:25 | 18.04222 | -63.11308 | 20 ft | 9 kts | 300° |
| 2026-05-03 23:25 | 18.04234 | -63.11417 | 22 ft | 18 kts | 263° |
| 2026-05-03 23:25 | 18.04181 | -63.11528 | 23 ft | 16 kts | 234° |
| 2026-05-03 23:25 | 18.04113 | -63.11618 | 24 ft | 12 kts | 232° |
| 2026-05-03 23:26 | 18.04069 | -63.11687 | 26 ft | 10 kts | 245° |
| 2026-05-03 23:26 | 18.04056 | -63.11753 | 25 ft | 0 kts | 260° |
| 2026-05-03 23:26 | 18.04053 | -63.11772 | 25 ft | 6 kts | 261° |
| 2026-05-03 23:26 | 18.04043 | -63.11843 | 26 ft | 3 kts | 262° |
| 2026-05-03 23:27 | 18.04043 | -63.11844 | 26 ft | 0 kts | 262° |
| 2026-05-03 23:27 | 18.04043 | -63.11845 | 26 ft | 1 kts | 262° |
| 2026-05-03 23:28 | 18.04037 | -63.11876 | 26 ft | 9 kts | 248° |
| 2026-05-03 23:28 | 18.03989 | -63.11954 | 25 ft | 10 kts | 205° |
| 2026-05-03 23:28 | 18.03946 | -63.11941 | 25 ft | 7 kts | 88° |
| 2026-05-03 23:28 | 18.03946 | -63.11928 | 25 ft | 0 kts | 90° |
| 2026-05-03 23:29 | 18.03946 | -63.11926 | 25 ft | 0 kts | 90° |
| 2026-05-03 23:29 | 18.03946 | -63.11923 | 25 ft | 0 kts | 90° |
| 2026-05-03 23:29 | 18.03946 | -63.11921 | 25 ft | 0 kts | 90° |
| 2026-05-03 23:29 | 18.03946 | -63.11919 | 25 ft | 0 kts | 90° |
| 2026-05-03 23:30 | 18.03946 | -63.11916 | 25 ft | 1 kts | 89° |
| 2026-05-03 23:30 | 18.03974 | -63.11737 | 25 ft | 49 kts | 82° |
| 2026-05-03 23:30 | 18.04046 | -63.11216 | 19 ft | 94 kts | 82° |
| 2026-05-03 23:30 | 18.04165 | -63.10385 | 19 ft | 138 kts | 81° |
| 2026-05-03 23:31 | 18.04295 | -63.09226 | 259 ft | 172 kts | 98° |
| 2026-05-03 23:31 | 18.03763 | -63.08068 | 681 ft | 191 kts | 136° |
| 2026-05-03 23:31 | 18.02476 | -63.07439 | 867 ft | 219 kts | 163° |
| 2026-05-03 23:31 | 18.01049 | -63.07112 | 1705 ft | 199 kts | 166° |
| 2026-05-03 23:32 | 17.99831 | -63.06855 | 2543 ft | 178 kts | 166° |
| 2026-05-03 23:32 | 17.98555 | -63.06582 | 2603 ft | 200 kts | 167° |
| 2026-05-03 23:32 | 17.97231 | -63.06694 | 3149 ft | 194 kts | 202° |
| 2026-05-03 23:32 | 17.96208 | -63.07717 | 3172 ft | 218 kts | 245° |
| 2026-05-03 23:33 | 17.95719 | -63.09294 | 3290 ft | 238 kts | 255° |
| 2026-05-03 23:33 | 17.95288 | -63.11039 | 3347 ft | 260 kts | 256° |
| 2026-05-03 23:33 | 17.94820 | -63.12954 | 3557 ft | 274 kts | 256° |
| 2026-05-03 23:33 | 17.94387 | -63.14904 | 3922 ft | 279 kts | 264° |
| 2026-05-03 23:34 | 17.94589 | -63.16908 | 4299 ft | 280 kts | 292° |
| 2026-05-03 23:34 | 17.95413 | -63.18754 | 4827 ft | 278 kts | 298° |
| 2026-05-03 23:34 | 17.96254 | -63.20610 | 5331 ft | 283 kts | 295° |
| 2026-05-03 23:34 | 17.97018 | -63.22500 | 6013 ft | 285 kts | 293° |
| 2026-05-03 23:35 | 17.97752 | -63.24424 | 6772 ft | 288 kts | 292° |
| 2026-05-03 23:35 | 17.98479 | -63.26381 | 7491 ft | 291 kts | 292° |
| 2026-05-03 23:35 | 17.99210 | -63.28373 | 8222 ft | 294 kts | 292° |
| 2026-05-03 23:35 | 17.99937 | -63.30365 | 8926 ft | 297 kts | 292° |
| 2026-05-03 23:36 | 18.00675 | -63.32392 | 9628 ft | 300 kts | 292° |
| 2026-05-03 23:36 | 18.01421 | -63.34445 | 10313 ft | 303 kts | 291° |
| 2026-05-03 23:36 | 18.02175 | -63.36518 | 10986 ft | 306 kts | 291° |
| 2026-05-03 23:36 | 18.02928 | -63.38591 | 11634 ft | 308 kts | 291° |
| 2026-05-03 23:37 | 18.03690 | -63.40689 | 12269 ft | 311 kts | 292° |
| 2026-05-03 23:37 | 18.04617 | -63.42779 | 12882 ft | 314 kts | 299° |
| 2026-05-03 23:37 | 18.05666 | -63.44790 | 13503 ft | 317 kts | 300° |
| 2026-05-03 23:37 | 18.06725 | -63.46824 | 14066 ft | 322 kts | 300° |
| 2026-05-03 23:38 | 18.07808 | -63.48939 | 14161 ft | 343 kts | 300° |
| 2026-05-03 23:38 | 18.08960 | -63.51215 | 14219 ft | 363 kts | 299° |
| 2026-05-03 23:38 | 18.10182 | -63.53644 | 14393 ft | 379 kts | 299° |
| 2026-05-03 23:38 | 18.11414 | -63.56105 | 14900 ft | 384 kts | 299° |
| 2026-05-03 23:39 | 18.12652 | -63.58584 | 15423 ft | 388 kts | 299° |
| 2026-05-03 23:39 | 18.13908 | -63.61100 | 15997 ft | 390 kts | 299° |
| 2026-05-03 23:39 | 18.15162 | -63.63611 | 16514 ft | 394 kts | 299° |
| 2026-05-03 23:39 | 18.16441 | -63.66173 | 17050 ft | 396 kts | 299° |
| 2026-05-03 23:40 | 18.17725 | -63.68745 | 17555 ft | 399 kts | 299° |
| 2026-05-03 23:40 | 18.19020 | -63.71342 | 18056 ft | 402 kts | 300° |
| 2026-05-03 23:40 | 18.20314 | -63.73938 | 18545 ft | 405 kts | 300° |
| 2026-05-03 23:40 | 18.21636 | -63.76590 | 19035 ft | 408 kts | 300° |
| 2026-05-03 23:41 | 18.22953 | -63.79233 | 19515 ft | 410 kts | 300° |
| 2026-05-03 23:41 | 18.24277 | -63.81893 | 19991 ft | 413 kts | 300° |
| 2026-05-03 23:41 | 18.25621 | -63.84594 | 20457 ft | 416 kts | 300° |
| 2026-05-03 23:41 | 18.26955 | -63.87276 | 20908 ft | 418 kts | 300° |
| 2026-05-03 23:42 | 18.28306 | -63.89991 | 21328 ft | 421 kts | 300° |
| 2026-05-03 23:42 | 18.29682 | -63.92757 | 21417 ft | 433 kts | 300° |
| 2026-05-03 23:42 | 18.31112 | -63.95627 | 21539 ft | 443 kts | 300° |
| 2026-05-03 23:42 | 18.32523 | -63.98469 | 21959 ft | 444 kts | 300° |
| 2026-05-03 23:43 | 18.33950 | -64.01347 | 22419 ft | 445 kts | 300° |
| 2026-05-03 23:43 | 18.35383 | -64.04238 | 22950 ft | 443 kts | 300° |
| 2026-05-03 23:43 | 18.36795 | -64.07091 | 23468 ft | 442 kts | 300° |
| 2026-05-03 23:43 | 18.38207 | -64.09943 | 23990 ft | 440 kts | 301° |
| 2026-05-03 23:44 | 18.39614 | -64.12782 | 24508 ft | 439 kts | 301° |
| 2026-05-03 23:44 | 18.41017 | -64.15619 | 25017 ft | 437 kts | 301° |
| 2026-05-03 23:44 | 18.42428 | -64.18470 | 25523 ft | 435 kts | 301° |
| 2026-05-03 23:44 | 18.43805 | -64.21253 | 26004 ft | 434 kts | 301° |
| 2026-05-03 23:45 | 18.44982 | -64.23633 | 26410 ft | 432 kts | 301° |
| 2026-05-03 23:45 | 18.46368 | -64.26437 | 26875 ft | 431 kts | 301° |
| 2026-05-03 23:45 | 18.47751 | -64.29234 | 27094 ft | 436 kts | 301° |
| 2026-05-03 23:45 | 18.49168 | -64.32094 | 27146 ft | 444 kts | 301° |
| 2026-05-03 23:46 | 18.50592 | -64.34970 | 27202 ft | 453 kts | 301° |
| 2026-05-03 23:46 | 18.52058 | -64.37939 | 27405 ft | 457 kts | 301° |
| 2026-05-03 23:46 | 18.53529 | -64.40921 | 27761 ft | 457 kts | 301° |
| 2026-05-03 23:46 | 18.54985 | -64.43880 | 28171 ft | 456 kts | 301° |
| 2026-05-03 23:47 | 18.56428 | -64.46812 | 28588 ft | 454 kts | 301° |
| 2026-05-03 23:47 | 18.57884 | -64.49771 | 29001 ft | 453 kts | 301° |
| 2026-05-03 23:47 | 18.59314 | -64.52678 | 29409 ft | 451 kts | 301° |
| 2026-05-03 23:47 | 18.60756 | -64.55611 | 29812 ft | 449 kts | 302° |
| 2026-05-03 23:48 | 18.62186 | -64.58520 | 30201 ft | 448 kts | 302° |
| 2026-05-03 23:48 | 18.63614 | -64.61426 | 30582 ft | 446 kts | 302° |
| 2026-05-03 23:48 | 18.65033 | -64.64314 | 30949 ft | 444 kts | 302° |
| 2026-05-03 23:48 | 18.66449 | -64.67197 | 31298 ft | 443 kts | 302° |
| 2026-05-03 23:49 | 18.67855 | -64.70062 | 31638 ft | 441 kts | 302° |
| 2026-05-03 23:49 | 18.69273 | -64.72952 | 31967 ft | 440 kts | 302° |
| 2026-05-03 23:49 | 18.71531 | -64.77551 | 32052 ft | 441 kts | 302° |
| 2026-05-03 23:50 | 18.73850 | -64.82283 | 32055 ft | 436 kts | 302° |
| 2026-05-03 23:50 | 18.77096 | -64.88897 | 32064 ft | 435 kts | 301° |
| 2026-05-03 23:51 | 18.79858 | -64.94534 | 32064 ft | 436 kts | 301° |
| 2026-05-03 23:51 | 18.82681 | -65.00301 | 32065 ft | 447 kts | 300° |
| 2026-05-03 23:52 | 18.85547 | -65.06171 | 32063 ft | 455 kts | 300° |
| 2026-05-03 23:52 | 18.88445 | -65.12130 | 32062 ft | 455 kts | 300° |
| 2026-05-03 23:53 | 18.91335 | -65.18079 | 32063 ft | 454 kts | 300° |
| 2026-05-03 23:53 | 18.94204 | -65.23985 | 32064 ft | 455 kts | 300° |
| 2026-05-03 23:54 | 18.97105 | -65.29955 | 32063 ft | 456 kts | 300° |
| 2026-05-03 23:54 | 18.99995 | -65.35910 | 32059 ft | 457 kts | 300° |
| 2026-05-03 23:55 | 19.02897 | -65.41893 | 32054 ft | 458 kts | 300° |
| 2026-05-03 23:55 | 19.05806 | -65.47895 | 32050 ft | 459 kts | 300° |
| 2026-05-03 23:56 | 19.08729 | -65.53929 | 32045 ft | 459 kts | 300° |
| 2026-05-03 23:56 | 19.11631 | -65.59927 | 32045 ft | 459 kts | 300° |
| 2026-05-03 23:57 | 19.13164 | -65.63099 | 32045 ft | 459 kts | 300° |
| 2026-05-03 23:57 | 19.15798 | -65.68554 | 32045 ft | 459 kts | 300° |
| 2026-05-03 23:58 | 19.18704 | -65.74576 | 32045 ft | 459 kts | 300° |
| 2026-05-03 23:58 | 19.21616 | -65.80617 | 32045 ft | 459 kts | 300° |
| 2026-05-03 23:59 | 19.24484 | -65.86575 | 32045 ft | 459 kts | 300° |
| 2026-05-03 23:59 | 19.27380 | -65.92596 | 32045 ft | 459 kts | 300° |
| 2026-05-04 00:00 | 19.30269 | -65.98610 | 32045 ft | 459 kts | 300° |
| 2026-05-04 00:00 | 19.33152 | -66.04617 | 32045 ft | 459 kts | 300° |
| 2026-05-04 00:01 | 19.36058 | -66.10676 | 32045 ft | 459 kts | 300° |
| 2026-05-04 00:01 | 19.38943 | -66.16702 | 32045 ft | 459 kts | 300° |
| 2026-05-04 00:02 | 19.41829 | -66.22731 | 32045 ft | 459 kts | 300° |
| 2026-05-04 00:02 | 19.44706 | -66.28752 | 32045 ft | 459 kts | 300° |
| 2026-05-04 00:03 | 19.47590 | -66.34791 | 32045 ft | 459 kts | 300° |
| 2026-05-04 00:03 | 19.50469 | -66.40828 | 32045 ft | 459 kts | 300° |
| 2026-05-04 00:04 | 19.53344 | -66.46861 | 32045 ft | 459 kts | 300° |
| 2026-05-04 00:04 | 19.56212 | -66.52888 | 32047 ft | 459 kts | 300° |
| 2026-05-04 00:05 | 19.59097 | -66.58955 | 32049 ft | 459 kts | 300° |
| 2026-05-04 00:05 | 19.61956 | -66.64976 | 32051 ft | 459 kts | 300° |
| 2026-05-04 00:06 | 19.64819 | -66.71009 | 32054 ft | 459 kts | 300° |
| 2026-05-04 00:06 | 19.67697 | -66.77080 | 32054 ft | 459 kts | 300° |
| 2026-05-04 00:07 | 19.70565 | -66.83137 | 32054 ft | 459 kts | 300° |
| 2026-05-04 00:07 | 19.73428 | -66.89193 | 32054 ft | 459 kts | 300° |
| 2026-05-04 00:08 | 19.76276 | -66.95219 | 32054 ft | 459 kts | 300° |
| 2026-05-04 00:08 | 19.79135 | -67.01270 | 32054 ft | 459 kts | 300° |
| 2026-05-04 00:09 | 19.82003 | -67.07343 | 32054 ft | 459 kts | 299° |
| 2026-05-04 00:09 | 19.84843 | -67.13368 | 32054 ft | 459 kts | 298° |
| 2026-05-04 00:10 | 19.87687 | -67.19410 | 32054 ft | 459 kts | 298° |
| 2026-05-04 00:10 | 19.90521 | -67.25447 | 32054 ft | 459 kts | 298° |
| 2026-05-04 00:11 | 19.93373 | -67.31531 | 32054 ft | 459 kts | 298° |
| 2026-05-04 00:11 | 19.96206 | -67.37579 | 32054 ft | 459 kts | 298° |
| 2026-05-04 00:12 | 19.99032 | -67.43614 | 32054 ft | 459 kts | 298° |
| 2026-05-04 00:12 | 20.01878 | -67.49698 | 32053 ft | 459 kts | 298° |
| 2026-05-04 00:13 | 20.04707 | -67.55752 | 32051 ft | 459 kts | 298° |
| 2026-05-04 00:13 | 20.07534 | -67.61807 | 32049 ft | 459 kts | 298° |
| 2026-05-04 00:14 | 20.10372 | -67.67890 | 32048 ft | 459 kts | 298° |
| 2026-05-04 00:14 | 20.13203 | -67.73968 | 32047 ft | 459 kts | 298° |
| 2026-05-04 00:15 | 20.16015 | -67.80010 | 32047 ft | 459 kts | 298° |
| 2026-05-04 00:15 | 20.18840 | -67.86088 | 32047 ft | 459 kts | 298° |
| 2026-05-04 00:16 | 20.21657 | -67.92155 | 32047 ft | 459 kts | 298° |
| 2026-05-04 00:16 | 20.24487 | -67.98255 | 32047 ft | 459 kts | 298° |
| 2026-05-04 00:17 | 20.27291 | -68.04307 | 32047 ft | 459 kts | 298° |
| 2026-05-04 00:17 | 20.30108 | -68.10394 | 32047 ft | 459 kts | 298° |
| 2026-05-04 00:18 | 20.32919 | -68.16476 | 32047 ft | 459 kts | 298° |
| 2026-05-04 00:18 | 20.34792 | -68.20528 | 32044 ft | 459 kts | 298° |